createdAt,value
2023-04-25T00:00:58.725Z,4.60
2023-04-25T00:03:00.918Z,5.70
2023-04-25T00:05:06.143Z,5.20
2023-04-25T00:07:08.523Z,5.20
2023-04-25T00:09:12.138Z,5.90
2023-04-25T00:11:14.153Z,4.53
2023-04-25T00:13:18.402Z,6.20
2023-04-25T00:15:20.595Z,5.27
2023-04-25T00:17:22.931Z,5.47
2023-04-25T00:19:25.014Z,5.23
2023-04-25T00:21:27.188Z,5.10
2023-04-25T00:23:29.479Z,6.00
2023-04-25T00:25:31.526Z,5.23
2023-04-25T00:27:33.546Z,5.50
2023-04-25T00:29:35.706Z,6.03
2023-04-25T00:31:38.150Z,5.60
2023-04-25T00:33:40.255Z,5.90
2023-04-25T00:35:42.863Z,5.70
2023-04-25T00:37:44.986Z,6.30
2023-04-25T00:39:47.277Z,5.73
2023-04-25T00:41:49.462Z,5.70
2023-04-25T00:43:52.519Z,5.70
2023-04-25T00:45:54.866Z,5.93
2023-04-25T00:47:57.675Z,5.80
2023-04-25T00:49:59.838Z,5.77
2023-04-25T00:52:01.907Z,5.53
2023-04-25T00:54:04.526Z,5.70
2023-04-25T00:56:07.009Z,5.43
2023-04-25T00:58:09.117Z,6.30
2023-04-25T01:00:12.148Z,6.40
2023-04-25T01:02:14.641Z,6.03
2023-04-25T01:04:17.266Z,7.00
2023-04-25T01:06:19.546Z,6.17
2023-04-25T01:08:26.351Z,5.93
2023-04-25T01:10:28.662Z,5.80
2023-04-25T01:12:30.779Z,6.10
2023-04-25T01:14:32.936Z,6.50
2023-04-25T01:16:35.316Z,5.53
2023-04-25T01:18:39.933Z,5.77
2023-04-25T01:20:42.988Z,6.10
2023-04-25T01:22:45.070Z,5.27
2023-04-25T01:24:47.623Z,5.50
2023-04-25T01:26:52.807Z,5.60
2023-04-25T01:28:59.626Z,5.20
2023-04-25T01:31:02.440Z,5.90
2023-04-25T01:33:06.342Z,5.10
2023-04-25T01:35:10.542Z,6.00
2023-04-25T01:37:12.706Z,5.93
2023-04-25T01:39:14.774Z,5.80
2023-04-25T01:41:18.900Z,5.43
2023-04-25T01:43:21.063Z,5.93
2023-04-25T01:45:23.386Z,6.10
2023-04-25T01:47:27.132Z,6.00
2023-04-25T01:49:31.244Z,5.97
2023-04-25T01:51:34.612Z,5.53
2023-04-25T01:53:36.829Z,6.07
2023-04-25T01:55:39.933Z,6.00
2023-04-25T01:57:45.861Z,6.50
2023-04-25T01:59:48.102Z,5.30
2023-04-25T02:02:12.968Z,5.70
2023-04-25T02:04:16.134Z,6.20
2023-04-25T02:06:19.423Z,5.40
2023-04-25T02:08:22.909Z,6.67
2023-04-25T02:10:25.023Z,6.07
2023-04-25T02:12:37.467Z,6.00
2023-04-25T02:14:58.061Z,6.23
2023-04-25T02:17:08.378Z,6.60
2023-04-25T02:19:11.383Z,6.17
2023-04-25T02:21:13.455Z,6.40
2023-04-25T02:23:16.604Z,5.97
2023-04-25T02:25:20.943Z,6.60
2023-04-25T02:27:23.116Z,6.57
2023-04-25T02:29:25.292Z,6.40
2023-04-25T02:31:27.559Z,5.90
2023-04-25T02:33:29.631Z,5.63
2023-04-25T02:35:33.492Z,6.07
2023-04-25T02:37:37.059Z,5.50
2023-04-25T02:39:39.067Z,6.57
2023-04-25T02:41:41.028Z,6.63
2023-04-25T02:43:43.024Z,6.00
2023-04-25T02:45:45.216Z,5.87
2023-04-25T02:47:47.735Z,6.00
2023-04-25T02:49:49.809Z,6.93
2023-04-25T02:51:52.089Z,5.90
2023-04-25T02:53:54.111Z,5.80
2023-04-25T02:55:59.289Z,5.97
2023-04-25T02:58:01.371Z,6.27
2023-04-25T03:00:15.302Z,6.00
2023-04-25T03:02:17.382Z,5.03
2023-04-25T03:04:20.375Z,6.33
2023-04-25T03:06:22.911Z,5.70
2023-04-25T03:08:26.204Z,6.13
2023-04-25T03:10:29.360Z,5.40
2023-04-25T03:12:35.432Z,6.13
2023-04-25T03:14:37.550Z,5.60
2023-04-25T03:16:40.532Z,6.40
2023-04-25T03:18:42.575Z,5.50
2023-04-25T03:20:44.765Z,5.70
2023-04-25T03:22:46.797Z,5.50
2023-04-25T03:24:48.827Z,6.03
2023-04-25T03:26:50.758Z,5.30
2023-04-25T03:28:52.843Z,5.80
2023-04-25T03:30:55.329Z,5.63
2023-04-25T03:32:57.634Z,5.30
2023-04-25T03:34:59.806Z,5.20
2023-04-25T03:37:03.005Z,5.27
2023-04-25T03:39:09.466Z,5.50
2023-04-25T03:41:12.644Z,5.90
2023-04-25T03:43:18.455Z,5.20
2023-04-25T03:45:26.819Z,5.80
2023-04-25T03:47:28.895Z,5.70
2023-04-25T03:49:31.332Z,6.73
2023-04-25T03:51:37.665Z,5.67
2023-04-25T03:53:39.724Z,5.23
2023-04-25T03:55:50.781Z,5.90
2023-04-25T03:57:52.905Z,5.90
2023-04-25T03:59:55.079Z,4.97
2023-04-25T04:01:58.208Z,5.97
2023-04-25T04:04:01.210Z,6.00
2023-04-25T04:06:06.573Z,6.27
2023-04-25T04:08:11.839Z,6.33
2023-04-25T04:10:15.303Z,5.50
2023-04-25T04:12:17.359Z,5.70
2023-04-25T04:14:19.688Z,5.83
2023-04-25T04:16:22.906Z,6.17
2023-04-25T04:18:25.130Z,6.27
2023-04-25T04:20:27.146Z,6.80
2023-04-25T04:22:29.254Z,6.20
2023-04-25T04:24:34.842Z,5.97
2023-04-25T04:26:40.627Z,6.23
2023-04-25T04:29:01.288Z,5.77
2023-04-25T04:31:17.968Z,7.10
2023-04-25T04:33:20.643Z,6.47
2023-04-25T04:35:25.866Z,6.93
2023-04-25T04:37:27.949Z,6.03
2023-04-25T04:39:30.009Z,7.63
2023-04-25T04:41:43.989Z,7.00
2023-04-25T04:44:05.768Z,7.27
2023-04-25T04:46:19.550Z,5.50
2023-04-25T04:48:47.524Z,5.27
2023-04-25T04:51:08.200Z,5.60
2023-04-25T04:53:28.608Z,6.30
2023-04-25T04:55:48.665Z,6.43
2023-04-25T04:58:04.517Z,5.47
2023-04-25T05:00:34.232Z,6.30
2023-04-25T05:03:06.669Z,5.83
2023-04-25T05:05:47.372Z,6.33
2023-04-25T05:08:15.299Z,5.87
2023-04-25T05:10:40.716Z,5.90
2023-04-25T05:13:12.028Z,5.63
2023-04-25T05:15:40.316Z,5.47
2023-04-25T05:18:08.462Z,6.50
2023-04-25T05:20:46.289Z,5.10
2023-04-25T05:22:48.358Z,5.40
2023-04-25T05:25:09.686Z,7.30
2023-04-25T05:27:35.537Z,6.00
2023-04-25T05:29:37.563Z,6.70
2023-04-25T05:32:09.504Z,6.43
2023-04-25T05:34:11.603Z,5.90
2023-04-25T05:36:34.772Z,5.30
2023-04-25T05:38:36.911Z,6.10
2023-04-25T05:40:57.010Z,5.83
2023-04-25T05:43:17.375Z,5.30
2023-04-25T05:45:26.211Z,5.93
2023-04-25T05:47:40.436Z,6.00
2023-04-25T05:49:47.952Z,5.67
2023-04-25T05:52:04.096Z,6.20
2023-04-25T05:54:22.922Z,5.50
2023-04-25T05:56:24.979Z,6.00
2023-04-25T05:58:29.821Z,6.00
2023-04-25T06:00:32.791Z,5.60
2023-04-25T06:02:35.024Z,6.20
2023-04-25T06:04:37.544Z,5.70
2023-04-25T06:06:39.808Z,6.23
2023-04-25T06:08:42.457Z,5.70
2023-04-25T06:10:46.886Z,5.40
2023-04-25T06:12:50.034Z,6.17
2023-04-25T06:14:53.467Z,5.87
2023-04-25T06:16:55.581Z,4.93
2023-04-25T06:18:57.536Z,5.10
2023-04-25T06:20:59.595Z,6.27
2023-04-25T06:23:01.996Z,6.10
2023-04-25T06:25:16.599Z,5.10
2023-04-25T06:27:18.617Z,6.10
2023-04-25T06:29:21.349Z,5.83
2023-04-25T06:31:23.459Z,6.03
2023-04-25T06:33:27.714Z,7.33
2023-04-25T06:35:31.066Z,6.30
2023-04-25T06:37:33.242Z,7.37
2023-04-25T06:39:36.701Z,8.03
2023-04-25T06:41:40.459Z,6.10
2023-04-25T06:43:45.369Z,6.67
2023-04-25T06:46:09.362Z,5.90
2023-04-25T06:48:17.888Z,6.70
2023-04-25T06:50:20.484Z,6.83
2023-04-25T06:52:22.672Z,6.70
2023-04-25T06:54:28.252Z,8.30
2023-04-25T06:56:37.326Z,7.00
2023-04-25T06:58:44.326Z,6.50
2023-04-25T07:00:56.236Z,6.23
2023-04-25T07:03:00.658Z,6.07
2023-04-25T07:05:05.113Z,7.63
2023-04-25T07:07:07.262Z,6.33
2023-04-25T07:09:17.543Z,5.73
2023-04-25T07:11:22.542Z,6.30
2023-04-25T07:13:24.688Z,6.57
2023-04-25T07:15:26.986Z,6.87
2023-04-25T07:17:29.207Z,6.30
2023-04-25T07:19:31.314Z,6.50
2023-04-25T07:21:37.404Z,7.23
2023-04-25T07:23:41.846Z,6.73
2023-04-25T07:25:47.732Z,7.23
2023-04-25T07:27:54.119Z,6.07
2023-04-25T07:29:57.555Z,5.10
2023-04-25T07:32:00.230Z,4.23
2023-04-25T07:34:02.431Z,5.33
2023-04-25T07:36:04.754Z,4.70
2023-04-25T07:38:07.843Z,5.23
2023-04-25T07:40:10.823Z,4.40
2023-04-25T07:42:17.858Z,4.53
2023-04-25T07:44:20.493Z,4.87
2023-04-25T07:46:22.586Z,4.10
2023-04-25T07:48:24.650Z,5.53
2023-04-25T07:50:28.293Z,4.20
2023-04-25T07:52:31.231Z,4.53
2023-04-25T07:54:42.762Z,3.87
2023-04-25T07:56:53.315Z,4.10
2023-04-25T07:58:58.712Z,3.50
2023-04-25T08:01:00.890Z,4.50
2023-04-25T08:03:24.775Z,4.93
2023-04-25T08:05:27.414Z,3.80
2023-04-25T08:07:36.740Z,4.33
2023-04-25T08:09:40.569Z,4.13
2023-04-25T08:11:48.782Z,3.97
2023-04-25T08:13:53.164Z,3.97
2023-04-25T08:15:55.796Z,3.70
2023-04-25T08:17:57.909Z,5.20
2023-04-25T08:19:59.989Z,3.80
2023-04-25T08:22:05.834Z,4.47
2023-04-25T08:24:18.837Z,4.40
2023-04-25T08:26:21.434Z,5.30
2023-04-25T08:28:25.625Z,4.80
2023-04-25T08:30:28.134Z,4.47
2023-04-25T08:32:31.084Z,4.50
2023-04-25T08:35:01.361Z,4.90
2023-04-25T08:37:05.280Z,5.33
2023-04-25T08:39:16.133Z,5.17
2023-04-25T08:41:32.767Z,4.70
2023-04-25T08:43:36.065Z,4.23
2023-04-25T08:45:41.649Z,4.80
2023-04-25T08:47:46.808Z,5.20
2023-04-25T08:49:50.883Z,5.30
2023-04-25T08:51:55.168Z,4.53
2023-04-25T08:54:23.271Z,4.33
2023-04-25T08:56:35.883Z,6.03
2023-04-25T08:58:39.289Z,4.70
2023-04-25T09:00:41.934Z,4.63
2023-04-25T09:02:45.113Z,4.63
2023-04-25T09:04:47.730Z,5.20
2023-04-25T09:06:49.989Z,5.43
2023-04-25T09:08:52.124Z,3.70
2023-04-25T09:10:54.173Z,4.40
2023-04-25T09:13:06.189Z,4.40
2023-04-25T09:15:20.582Z,5.00
2023-04-25T09:17:59.528Z,4.80
2023-04-25T09:20:11.609Z,4.70
2023-04-25T09:22:14.008Z,4.20
2023-04-25T09:24:16.324Z,3.80
2023-04-25T09:26:20.382Z,3.90
2023-04-25T09:28:30.099Z,4.10
2023-04-25T09:30:35.626Z,4.50
2023-04-25T09:32:45.800Z,4.73
2023-04-25T09:34:53.162Z,3.20
2023-04-25T09:36:56.422Z,3.73
2023-04-25T09:39:25.009Z,3.97
2023-04-25T09:41:38.817Z,4.20
2023-04-25T09:43:43.727Z,4.80
2023-04-25T09:45:46.762Z,4.30
2023-04-25T09:47:50.997Z,4.10
2023-04-25T09:49:59.474Z,3.70
2023-04-25T09:52:01.756Z,3.00
2023-04-25T09:54:12.942Z,4.60
2023-04-25T09:56:23.497Z,3.70
2023-04-25T09:58:27.076Z,3.60
2023-04-25T10:00:31.636Z,3.60
2023-04-25T10:02:44.342Z,3.50
2023-04-25T10:04:56.166Z,3.80
2023-04-25T10:07:11.106Z,3.50
2023-04-25T10:09:13.892Z,4.27
2023-04-25T10:11:17.659Z,4.30
2023-04-25T10:13:19.881Z,5.00
2023-04-25T10:15:22.824Z,5.47
2023-04-25T10:17:25.595Z,6.37
2023-04-25T10:19:28.579Z,5.20
2023-04-25T10:21:32.890Z,5.50
2023-04-25T10:23:35.822Z,4.67
2023-04-25T10:25:38.396Z,5.03
2023-04-25T10:27:40.755Z,5.13
2023-04-25T10:29:44.667Z,4.70
2023-04-25T10:31:48.537Z,4.53
2023-04-25T10:33:52.846Z,4.60
2023-04-25T10:35:59.142Z,4.63
2023-04-25T10:38:01.976Z,4.87
2023-04-25T10:40:13.829Z,4.80
2023-04-25T10:42:16.185Z,3.93
2023-04-25T10:44:18.494Z,5.23
2023-04-25T10:46:24.365Z,4.60
2023-04-25T10:48:31.366Z,4.97
2023-04-25T10:50:40.896Z,6.40
2023-04-25T10:52:43.384Z,4.00
2023-04-25T10:54:48.983Z,4.10
2023-04-25T10:56:51.875Z,4.07
2023-04-25T10:59:04.131Z,4.30
2023-04-25T11:01:07.529Z,3.53
2023-04-25T11:03:09.904Z,4.10
2023-04-25T11:05:21.446Z,3.40
2023-04-25T11:07:38.742Z,3.43
2023-04-25T11:09:41.857Z,3.93
2023-04-25T11:11:44.240Z,3.77
2023-04-25T11:13:50.886Z,3.80
2023-04-25T11:16:03.212Z,3.13
2023-04-25T11:18:17.414Z,3.10
2023-04-25T11:20:19.640Z,3.37
2023-04-25T11:22:22.386Z,3.40
2023-04-25T11:24:31.780Z,3.73
2023-04-25T11:26:35.155Z,3.80
2023-04-25T11:28:37.310Z,3.00
2023-04-25T11:30:39.495Z,4.47
2023-04-25T11:32:43.002Z,4.57
2023-04-25T11:34:46.393Z,4.70
2023-04-25T11:36:48.865Z,3.60
2023-04-25T11:38:52.869Z,3.13
2023-04-25T11:40:55.609Z,2.30
2023-04-25T11:43:01.191Z,3.10
2023-04-25T11:45:05.066Z,2.90
2023-04-25T11:47:07.288Z,3.10
2023-04-25T11:49:09.700Z,2.60
2023-04-25T11:51:12.444Z,2.23
2023-04-25T11:53:14.630Z,2.70
2023-04-25T11:55:19.089Z,3.20
2023-04-25T11:57:21.822Z,2.90
2023-04-25T11:59:25.270Z,3.27
2023-04-25T12:01:35.360Z,2.87
2023-04-25T12:03:47.267Z,2.33
2023-04-25T12:05:51.343Z,2.50
2023-04-25T12:07:53.727Z,3.30
2023-04-25T12:09:55.989Z,2.40
2023-04-25T12:12:00.570Z,2.80
2023-04-25T12:14:05.072Z,2.40
2023-04-25T12:16:07.403Z,3.10
2023-04-25T12:18:09.638Z,3.37
2023-04-25T12:20:15.342Z,2.93
2023-04-25T12:22:22.385Z,3.37
2023-04-25T12:24:26.836Z,3.20
2023-04-25T12:26:47.373Z,3.17
2023-04-25T12:28:49.627Z,3.43
2023-04-25T12:30:56.009Z,2.90
2023-04-25T12:32:58.323Z,2.90
2023-04-25T12:35:00.596Z,2.90
2023-04-25T12:37:02.875Z,2.97
2023-04-25T12:39:05.345Z,2.77
2023-04-25T12:41:07.988Z,3.57
2023-04-25T12:43:10.152Z,3.00
2023-04-25T12:45:12.273Z,3.30
2023-04-25T12:47:15.066Z,3.73
2023-04-25T12:49:19.391Z,2.77
2023-04-25T12:51:22.025Z,2.90
2023-04-25T12:53:27.363Z,3.57
2023-04-25T12:55:29.741Z,3.17
2023-04-25T12:57:31.930Z,2.43
2023-04-25T12:59:34.165Z,2.73
2023-04-25T13:01:36.923Z,2.80
2023-04-25T13:03:39.484Z,2.73
2023-04-25T13:05:42.220Z,2.60
2023-04-25T13:07:44.446Z,3.00
2023-04-25T13:09:46.597Z,3.10
2023-04-25T13:11:48.783Z,2.50
2023-04-25T13:13:51.204Z,3.10
2023-04-25T13:15:53.566Z,3.20
2023-04-25T13:17:56.821Z,3.43
2023-04-25T13:19:59.031Z,2.83
2023-04-25T13:22:02.097Z,3.40
2023-04-25T13:24:04.702Z,3.43
2023-04-25T13:26:07.068Z,3.27
2023-04-25T13:28:09.354Z,3.33
2023-04-25T13:30:11.914Z,2.70
2023-04-25T13:32:14.139Z,2.47
2023-04-25T13:34:16.469Z,3.43
2023-04-25T13:36:18.712Z,2.80
2023-04-25T13:38:22.736Z,2.60
2023-04-25T13:40:25.715Z,3.07
2023-04-25T13:42:28.157Z,2.50
2023-04-25T13:44:30.364Z,3.20
2023-04-25T13:46:45.562Z,3.27
2023-04-25T13:48:49.729Z,3.47
2023-04-25T13:50:51.938Z,2.90
2023-04-25T13:52:54.113Z,2.70
2023-04-25T13:54:56.736Z,3.00
2023-04-25T13:57:00.181Z,3.10
2023-04-25T13:59:02.381Z,3.27
2023-04-25T14:01:04.912Z,3.63
2023-04-25T14:03:09.053Z,2.60
2023-04-25T14:05:11.548Z,3.30
2023-04-25T14:07:17.077Z,3.43
2023-04-25T14:09:20.696Z,3.00
2023-04-25T14:11:23.013Z,3.17
2023-04-25T14:13:25.319Z,3.00
2023-04-25T14:15:27.715Z,2.70
2023-04-25T14:17:30.070Z,2.63
2023-04-25T14:19:32.355Z,3.20
2023-04-25T14:21:34.588Z,2.80
2023-04-25T14:23:36.999Z,3.10
2023-04-25T14:25:39.300Z,2.63
2023-04-25T14:27:41.496Z,3.33
2023-04-25T14:29:43.955Z,2.60
2023-04-25T14:31:46.408Z,2.73
2023-04-25T14:33:49.291Z,3.10
2023-04-25T14:35:51.983Z,3.00
2023-04-25T14:37:54.199Z,3.17
2023-04-25T14:39:56.346Z,3.03
2023-04-25T14:41:58.832Z,3.30
2023-04-25T14:44:01.243Z,2.70
2023-04-25T14:46:04.348Z,2.37
2023-04-25T14:48:06.705Z,3.00
2023-04-25T14:50:09.772Z,3.50
2023-04-25T14:52:11.897Z,3.10
2023-04-25T14:54:14.168Z,2.80
2023-04-25T14:56:16.370Z,2.80
2023-04-25T14:58:18.519Z,2.23
2023-04-25T15:00:21.779Z,3.10
2023-04-25T15:02:25.497Z,2.23
2023-04-25T15:04:27.792Z,2.70
2023-04-25T15:06:31.360Z,2.60
2023-04-25T15:08:34.227Z,3.00
2023-04-25T15:10:36.389Z,2.90
2023-04-25T15:12:38.675Z,2.60
2023-04-25T15:14:41.264Z,2.83
2023-04-25T15:16:43.605Z,2.30
2023-04-25T15:18:46.070Z,3.70
2023-04-25T15:20:48.322Z,3.40
2023-04-25T15:22:50.674Z,2.77
2023-04-25T15:24:53.042Z,2.47
2023-04-25T15:26:55.267Z,3.13
2023-04-25T15:28:57.522Z,2.80
2023-04-25T15:30:59.756Z,4.27
2023-04-25T15:33:02.088Z,2.20
2023-04-25T15:35:06.872Z,2.50
2023-04-25T15:37:09.046Z,2.63
2023-04-25T15:39:11.340Z,3.57
2023-04-25T15:41:13.787Z,3.50
2023-04-25T15:43:17.265Z,3.30
2023-04-25T15:45:25.872Z,2.90
2023-04-25T15:47:28.031Z,3.00
2023-04-25T15:49:31.254Z,3.40
2023-04-25T15:51:33.777Z,3.53
2023-04-25T15:53:36.197Z,3.80
2023-04-25T15:55:38.435Z,2.80
2023-04-25T15:57:42.142Z,2.80
2023-04-25T15:59:44.394Z,3.00
2023-04-25T16:01:46.617Z,2.57
2023-04-25T16:03:49.171Z,2.47
2023-04-25T16:05:51.712Z,2.50
2023-04-25T16:07:53.983Z,3.17
2023-04-25T16:09:56.387Z,2.43
2023-04-25T16:11:58.558Z,2.37
2023-04-25T16:14:00.686Z,2.70
2023-04-25T16:16:02.906Z,3.10
2023-04-25T16:18:05.258Z,2.40
2023-04-25T16:20:12.485Z,2.40
2023-04-25T16:22:16.629Z,2.83
2023-04-25T16:24:18.802Z,3.63
2023-04-25T16:26:22.632Z,3.50
2023-04-25T16:28:24.764Z,3.40
2023-04-25T16:30:27.043Z,2.30
2023-04-25T16:32:29.482Z,2.80
2023-04-25T16:34:31.614Z,2.73
2023-04-25T16:36:33.897Z,2.73
2023-04-25T16:38:39.068Z,3.07
2023-04-25T16:40:41.212Z,2.80
2023-04-25T16:42:43.415Z,2.60
2023-04-25T16:44:45.638Z,3.10
2023-04-25T16:46:47.839Z,2.60
2023-04-25T16:48:50.287Z,2.53
2023-04-25T16:50:54.232Z,2.97
2023-04-25T16:52:56.399Z,2.27
2023-04-25T16:54:58.502Z,2.37
2023-04-25T16:57:01.354Z,2.67
2023-04-25T16:59:03.453Z,2.73
2023-04-25T17:01:05.664Z,2.57
2023-04-25T17:03:09.011Z,2.33
2023-04-25T17:05:12.015Z,2.13
2023-04-25T17:07:14.141Z,2.43
2023-04-25T17:09:16.397Z,2.00
2023-04-25T17:11:20.135Z,1.73
2023-04-25T17:13:22.400Z,1.90
2023-04-25T17:15:34.364Z,1.80
2023-04-25T17:17:36.756Z,2.10
2023-04-25T17:19:39.096Z,2.10
2023-04-25T17:21:41.441Z,2.13
2023-04-25T17:23:45.742Z,1.83
2023-04-25T17:25:48.054Z,2.20
2023-04-25T17:27:50.224Z,1.80
2023-04-25T17:29:52.312Z,1.60
2023-04-25T17:31:54.543Z,1.90
2023-04-25T17:33:57.721Z,2.10
2023-04-25T17:35:59.937Z,2.00
2023-04-25T17:38:02.414Z,1.77
2023-04-25T17:40:06.876Z,2.10
2023-04-25T17:42:09.680Z,2.53
2023-04-25T17:44:11.998Z,1.97
2023-04-25T17:46:14.195Z,2.00
2023-04-25T17:48:16.372Z,2.00
2023-04-25T17:50:18.751Z,2.10
2023-04-25T17:52:20.984Z,2.30
2023-04-25T17:54:23.229Z,2.20
2023-04-25T17:56:27.570Z,2.43
2023-04-25T17:58:30.116Z,2.20
2023-04-25T18:00:33.637Z,2.30
2023-04-25T18:02:36.761Z,2.37
2023-04-25T18:04:39.366Z,2.70
2023-04-25T18:06:41.755Z,2.33
2023-04-25T18:08:44.875Z,2.20
2023-04-25T18:10:47.046Z,3.00
2023-04-25T18:12:50.686Z,2.60
2023-04-25T18:14:52.978Z,2.50
2023-04-25T18:16:55.569Z,2.73
2023-04-25T18:19:05.275Z,3.40
2023-04-25T18:21:08.608Z,2.87
2023-04-25T18:23:12.078Z,2.60
2023-04-25T18:25:15.444Z,3.30
2023-04-25T18:27:17.618Z,3.40
2023-04-25T18:29:32.372Z,3.03
2023-04-25T18:31:36.891Z,3.27
2023-04-25T18:33:39.101Z,3.73
2023-04-25T18:35:51.503Z,3.57
2023-04-25T18:38:00.090Z,3.13
2023-04-25T18:40:06.297Z,2.93
2023-04-25T18:42:08.704Z,3.30
2023-04-25T18:44:11.091Z,4.20
2023-04-25T18:46:13.360Z,3.53
2023-04-25T18:48:15.640Z,2.90
2023-04-25T18:50:20.801Z,3.60
2023-04-25T18:52:23.579Z,3.10
2023-04-25T18:54:25.803Z,3.03
2023-04-25T18:56:28.425Z,2.30
2023-04-25T18:58:30.644Z,2.70
2023-04-25T19:00:32.928Z,2.70
2023-04-25T19:02:36.999Z,3.10
2023-04-25T19:04:39.459Z,2.77
2023-04-25T19:06:41.936Z,2.50
2023-04-25T19:08:44.081Z,2.70
2023-04-25T19:10:46.579Z,2.50
2023-04-25T19:12:49.307Z,2.90
2023-04-25T19:14:51.640Z,2.50
2023-04-25T19:16:54.136Z,2.80
2023-04-25T19:18:57.008Z,1.90
2023-04-25T19:21:00.343Z,2.80
2023-04-25T19:23:02.483Z,2.40
2023-04-25T19:25:10.730Z,2.80
2023-04-25T19:27:14.098Z,2.70
2023-04-25T19:29:16.687Z,2.50
2023-04-25T19:31:19.952Z,2.53
2023-04-25T19:33:22.436Z,2.33
2023-04-25T19:35:25.289Z,3.13
2023-04-25T19:37:27.498Z,3.00
2023-04-25T19:39:29.848Z,2.87
2023-04-25T19:41:33.662Z,2.50
2023-04-25T19:43:35.986Z,2.57
2023-04-25T19:45:38.266Z,2.20
2023-04-25T19:47:41.956Z,2.77
2023-04-25T19:49:44.297Z,2.70
2023-04-25T19:51:46.464Z,2.40
2023-04-25T19:53:48.698Z,3.60
2023-04-25T19:55:51.057Z,2.30
2023-04-25T19:57:53.240Z,2.60
2023-04-25T19:59:55.407Z,2.60
2023-04-25T20:01:57.573Z,2.43
2023-04-25T20:03:59.759Z,2.30
2023-04-25T20:06:01.984Z,2.17
2023-04-25T20:08:04.686Z,2.60
2023-04-25T20:10:08.248Z,3.23
2023-04-25T20:12:11.924Z,3.00
2023-04-25T20:14:14.137Z,2.67
2023-04-25T20:16:19.863Z,2.50
2023-04-25T20:18:22.271Z,2.47
2023-04-25T20:20:24.443Z,3.23
2023-04-25T20:22:28.641Z,2.50
2023-04-25T20:24:31.385Z,2.67
2023-04-25T20:26:34.238Z,2.70
2023-04-25T20:28:36.636Z,4.00
2023-04-25T20:30:39.406Z,2.70
2023-04-25T20:32:41.691Z,2.60
2023-04-25T20:34:44.251Z,2.80
2023-04-25T20:36:46.431Z,2.67
2023-04-25T20:38:48.564Z,3.57
2023-04-25T20:40:50.981Z,3.93
2023-04-25T20:42:53.136Z,3.20
2023-04-25T20:44:55.925Z,2.93
2023-04-25T20:46:58.011Z,3.83
2023-04-25T20:49:01.565Z,3.73
2023-04-25T20:51:04.125Z,3.10
2023-04-25T20:53:06.311Z,3.27
2023-04-25T20:55:10.841Z,2.70
2023-04-25T20:57:13.083Z,3.23
2023-04-25T20:59:15.425Z,3.23
2023-04-25T21:01:18.567Z,3.17
2023-04-25T21:03:20.983Z,3.53
2023-04-25T21:05:23.472Z,3.00
2023-04-25T21:07:26.656Z,3.43
2023-04-25T21:09:28.824Z,2.80
2023-04-25T21:11:31.218Z,2.87
2023-04-25T21:13:33.398Z,3.00
2023-04-25T21:15:35.612Z,3.40
2023-04-25T21:17:37.857Z,3.03
2023-04-25T21:19:40.262Z,3.03
2023-04-25T21:21:42.712Z,3.67
2023-04-25T21:23:44.863Z,3.67
2023-04-25T21:25:48.871Z,2.70
2023-04-25T21:27:52.311Z,3.10
2023-04-25T21:29:54.692Z,3.10
2023-04-25T21:31:56.989Z,3.33
2023-04-25T21:33:59.141Z,3.27
2023-04-25T21:36:01.356Z,3.33
2023-04-25T21:38:03.808Z,3.63
2023-04-25T21:40:07.565Z,3.17
2023-04-25T21:42:10.774Z,3.43
2023-04-25T21:44:14.492Z,3.17
2023-04-25T21:46:23.410Z,3.63
2023-04-25T21:48:26.077Z,3.50
2023-04-25T21:50:30.090Z,3.90
2023-04-25T21:52:32.544Z,3.43
2023-04-25T21:54:36.503Z,3.30
2023-04-25T21:56:38.679Z,3.60
2023-04-25T21:58:40.872Z,3.03
2023-04-25T22:00:44.407Z,4.13
2023-04-25T22:02:49.818Z,3.60
2023-04-25T22:04:52.569Z,3.70
2023-04-25T22:06:54.915Z,4.03
2023-04-25T22:08:57.109Z,3.57
2023-04-25T22:11:00.107Z,4.53
2023-04-25T22:13:03.913Z,3.47
2023-04-25T22:15:08.173Z,2.87
2023-04-25T22:17:12.087Z,4.07
2023-04-25T22:19:14.270Z,4.10
2023-04-25T22:21:16.586Z,4.07
2023-04-25T22:23:18.980Z,3.87
2023-04-25T22:25:22.180Z,3.63
2023-04-25T22:27:24.374Z,4.37
2023-04-25T22:29:26.746Z,3.73
2023-04-25T22:31:29.099Z,3.53
2023-04-25T22:33:33.373Z,3.97
2023-04-25T22:35:35.464Z,4.00
2023-04-25T22:37:37.776Z,3.47
2023-04-25T22:39:40.279Z,4.13
2023-04-25T22:41:42.756Z,4.27
2023-04-25T22:43:44.736Z,3.70
2023-04-25T22:45:47.120Z,3.70
2023-04-25T22:47:49.201Z,4.00
2023-04-25T22:49:51.712Z,4.03
2023-04-25T22:51:57.503Z,3.87
2023-04-25T22:53:59.588Z,3.50
2023-04-25T22:56:02.011Z,3.87
2023-04-25T22:58:04.750Z,3.27
2023-04-25T23:00:15.169Z,4.30
2023-04-25T23:02:17.378Z,4.07
2023-04-25T23:04:20.008Z,4.33
2023-04-25T23:06:22.869Z,3.47
2023-04-25T23:08:25.675Z,3.70
2023-04-25T23:10:28.675Z,4.20
2023-04-25T23:12:30.799Z,4.13
2023-04-25T23:14:33.199Z,4.63
2023-04-25T23:16:35.589Z,4.37
2023-04-25T23:18:39.096Z,4.10
2023-04-25T23:20:41.230Z,4.20
2023-04-25T23:22:43.630Z,4.20
2023-04-25T23:24:46.050Z,3.73
2023-04-25T23:26:48.059Z,3.33
2023-04-25T23:28:50.473Z,4.80
2023-04-25T23:30:52.703Z,4.10
2023-04-25T23:32:54.757Z,3.77
2023-04-25T23:34:56.854Z,3.30
2023-04-25T23:37:01.308Z,4.47
2023-04-25T23:39:04.598Z,4.00
2023-04-25T23:41:06.717Z,4.00
2023-04-25T23:43:08.761Z,4.23
2023-04-25T23:45:11.271Z,4.33
2023-04-25T23:47:14.271Z,3.67
2023-04-25T23:49:16.454Z,4.20
2023-04-25T23:51:18.546Z,3.73
2023-04-25T23:53:20.570Z,4.10
2023-04-25T23:55:22.557Z,3.93
2023-04-25T23:57:24.663Z,4.60
2023-04-25T23:59:28.168Z,4.13
